Terminal Aerodrome Forecast
Issued by NWS

Home | Current Version | Previous Version | Text Only | Print | Product List | Glossary On
Versions: 1 2 3 4 5 6 7 8 9 10 11 12 13 14 15 16 17 18 19 20 21 22 23 24 25 26 27
000
FTUS41 KBOX 210921 AAA
TAFACK
TAF AMD
KACK 210921Z 2109/2206 05005KT P6SM SCT020 BKN040
     FM211200 06008KT P6SM OVC020
     FM211800 05007KT P6SM OVC025
     FM212100 05007KT P6SM OVC020
     FM220000 05007KT P6SM OVC025=

USA.gov is the U.S. government's official web portal to all federal, state and local government web resources and services.